Time;durP1;ratioP1;P1;durP2;ratioP2;P2;SDS_P1;SDS_P2;PMS_P1;PMS_P2;Temp;Humidity;BMP_temperature;BMP_pressure;BME280_temperature;BME280_humidity;BME280_pressure;Samples;Min_cycle;Max_cycle;Signal;HPM_P1;HPM_P2
2024/01/20 00:00:23;;;;;;;11.37;10.33;;;;;;;6.96;100.00;147795.81;5113549;28;20183;-56
2024/01/20 00:02:51;;;;;;;10.97;10.00;;;;;;;6.50;100.00;147682.38;5112563;28;20274;-56
2024/01/20 00:05:18;;;;;;;10.30;9.40;;;;;;;6.56;100.00;147696.25;5112969;28;20228;-57
2024/01/20 00:07:45;;;;;;;9.47;8.77;;;;;;;6.65;100.00;147720.19;5112587;28;20183;-57
2024/01/20 00:10:12;;;;;;;9.40;8.90;;;;;;;6.63;100.00;147715.13;5112918;28;20184;-55
2024/01/20 00:12:41;;;;;;;8.17;7.57;;;;;;;6.70;100.00;147731.53;5112416;28;20237;-57
2024/01/20 00:15:09;;;;;;;7.23;6.83;;;;;;;6.36;100.00;147647.13;5112731;28;20228;-56
2024/01/20 00:17:37;;;;;;;7.57;7.17;;;;;;;6.39;100.00;147654.66;5112925;28;20622;-57
2024/01/20 00:20:07;;;;;;;6.57;6.17;;;;;;;6.15;100.00;147595.50;5112459;28;20274;-57
2024/01/20 00:22:34;;;;;;;6.03;5.63;;;;;;;6.26;100.00;147623.19;5112686;28;20656;-57
2024/01/20 00:25:02;;;;;;;4.30;4.10;;;;;;;6.22;100.00;147611.84;5112197;28;20187;-56
2024/01/20 00:27:29;;;;;;;3.63;3.43;;;;;;;6.06;100.00;147572.81;5112976;28;20199;-57
2024/01/20 00:29:56;;;;;;;3.57;3.47;;;;;;;6.02;100.00;147562.75;5112531;28;20179;-56
2024/01/20 00:32:23;;;;;;;3.40;3.20;;;;;;;6.10;100.00;147581.63;5112074;28;20183;-56
2024/01/20 00:34:50;;;;;;;3.57;3.37;;;;;;;5.93;100.00;147540.06;5112458;28;20612;-56
2024/01/20 00:37:19;;;;;;;3.70;3.50;;;;;;;6.02;100.00;147561.47;5112082;28;20253;-57
2024/01/20 00:39:46;;;;;;;3.53;3.33;;;;;;;5.90;100.00;147533.75;5112063;28;20192;-56
2024/01/20 00:42:13;;;;;;;3.37;3.17;;;;;;;5.97;100.00;147550.13;5112057;28;20183;-56
2024/01/20 00:44:41;;;;;;;3.40;3.30;;;;;;;5.75;100.00;147495.94;5112322;28;20225;-57
2024/01/20 00:47:08;;;;;;;3.87;3.67;;;;;;;5.77;100.00;147499.72;5112373;28;20634;-57
2024/01/20 00:49:35;;;;;;;3.47;3.27;;;;;;;5.71;100.00;147485.88;5112069;28;20276;-57
2024/01/20 00:52:02;;;;;;;3.70;3.50;;;;;;;5.72;100.00;147488.41;5112088;28;20245;-56
2024/01/20 00:54:30;;;;;;;3.73;3.53;;;;;;;5.76;100.00;147498.47;5112123;28;20231;-55
2024/01/20 00:56:58;;;;;;;3.60;3.43;;;;;;;5.71;100.00;147484.59;5112366;28;20229;-56
2024/01/20 00:59:25;;;;;;;3.50;3.27;;;;;;;5.65;100.00;147470.75;5112214;28;20183;-56
2024/01/20 01:01:52;;;;;;;3.30;3.17;;;;;;;5.53;100.00;147441.81;5111870;28;20191;-57
2024/01/20 01:04:19;;;;;;;3.87;3.67;;;;;;;5.62;100.00;147461.94;5112377;28;20599;-56
2024/01/20 01:06:46;;;;;;;3.03;2.93;;;;;;;5.46;100.00;147422.94;5112353;28;20236;-56
2024/01/20 01:09:13;;;;;;;2.30;2.20;;;;;;;5.56;100.00;147446.88;5111898;28;20184;-56
2024/01/20 01:11:41;;;;;;;2.73;2.63;;;;;;;5.47;100.00;147426.69;5112307;28;20239;-56
2024/01/20 01:14:08;;;;;;;2.97;2.77;;;;;;;5.42;100.00;147414.13;5112136;28;20630;-56
2024/01/20 01:16:35;;;;;;;2.63;2.53;;;;;;;5.58;100.00;147453.13;5112062;28;20315;-58
2024/01/20 01:19:03;;;;;;;2.07;1.97;;;;;;;5.57;100.00;147450.59;5112027;28;20187;-57
2024/01/20 01:21:30;;;;;;;2.70;2.60;;;;;;;5.58;100.00;147453.13;5111660;28;20218;-57
2024/01/20 01:23:57;;;;;;;2.40;2.30;;;;;;;5.64;100.00;147467.00;5112129;28;20187;-56
2024/01/20 01:26:24;;;;;;;2.60;2.50;;;;;;;5.53;100.00;147441.81;5112131;28;20195;-55
2024/01/20 01:28:53;;;;;;;4.13;2.53;;;;;;;5.38;100.00;147404.06;5111665;28;20270;-55
2024/01/20 01:31:20;;;;;;;1.67;1.63;;;;;;;5.43;100.00;147416.59;5112168;28;20615;-58
2024/01/20 01:33:47;;;;;;;1.60;1.60;;;;;;;5.41;100.00;147410.34;5111789;28;20179;-56
2024/01/20 01:36:14;;;;;;;1.30;1.30;;;;;;;5.32;100.00;147387.69;5111809;28;20237;-56
2024/01/20 01:38:41;;;;;;;1.10;1.10;;;;;;;5.25;100.00;147370.06;5111598;28;20187;-58
2024/01/20 01:41:08;;;;;;;1.17;1.17;;;;;;;5.14;100.00;147342.34;5111692;28;20191;-58
2024/01/20 01:43:35;;;;;;;1.20;1.20;;;;;;;5.07;100.00;147327.28;5111668;28;20194;-58
2024/01/20 01:46:04;;;;;;;1.07;1.07;;;;;;;4.73;100.00;147241.72;5114675;28;20179;-57
2024/01/20 01:48:33;;;;;;;0.87;0.87;;;;;;;4.89;100.00;147281.97;5116022;28;20698;-56
2024/01/20 01:51:04;;;;;;;1.00;1.00;;;;;;;4.85;100.00;147270.66;5115523;28;20598;-56
2024/01/20 01:53:31;;;;;;;1.20;1.20;;;;;;;4.99;100.00;147307.16;5115469;28;20514;-57
2024/01/20 01:56:00;;;;;;;1.47;0.93;;;;;;;4.99;100.00;147307.16;5115062;28;20643;-58
2024/01/20 01:58:28;;;;;;;1.30;1.30;;;;;;;5.05;100.00;147320.97;5115404;28;20282;-57
2024/01/20 02:00:55;;;;;;;1.13;1.13;;;;;;;5.03;100.00;147315.97;5114952;28;20248;-57
2024/01/20 02:03:24;;;;;;;1.80;1.70;;;;;;;4.73;100.00;147241.72;5115711;28;20191;-57
2024/01/20 02:05:51;;;;;;;1.50;1.50;;;;;;;4.96;100.00;147298.38;5115288;28;20335;-57
2024/01/20 02:08:19;;;;;;;1.60;1.60;;;;;;;4.78;100.00;147253.06;5114811;28;20183;-56
2024/01/20 02:10:48;;;;;;;2.60;2.50;;;;;;;4.76;100.00;147249.28;5114819;28;20283;-56
2024/01/20 02:13:16;;;;;;;2.30;2.20;;;;;;;4.55;100.00;147196.44;5114980;28;20241;-56
2024/01/20 02:15:43;;;;;;;2.63;2.53;;;;;;;4.54;100.00;147193.97;5114648;28;20187;-57
2024/01/20 02:18:11;;;;;;;2.13;2.03;;;;;;;4.37;100.00;147152.41;5114934;28;20531;-56
2024/01/20 02:20:39;;;;;;;2.40;2.30;;;;;;;4.21;100.00;147110.91;5114903;28;20188;-56
2024/01/20 02:23:07;;;;;;;2.60;2.50;;;;;;;4.18;100.00;147103.38;5115147;28;20630;-57
2024/01/20 02:25:34;;;;;;;2.60;2.50;;;;;;;4.27;100.00;147126.03;5114549;28;20188;-57
2024/01/20 02:28:02;;;;;;;2.37;2.27;;;;;;;4.08;100.00;147080.75;5114671;28;20628;-58
2024/01/20 02:30:29;;;;;;;2.50;2.40;;;;;;;3.97;100.00;147053.13;5115380;28;20682;-56
2024/01/20 02:32:56;;;;;;;2.70;2.60;;;;;;;4.07;100.00;147078.22;5114541;28;20228;-55
2024/01/20 02:35:23;;;;;;;2.30;2.20;;;;;;;4.15;100.00;147097.13;5115285;28;20184;-57
2024/01/20 02:37:50;;;;;;;2.30;2.20;;;;;;;4.13;100.00;147093.34;5114876;28;20652;-56
2024/01/20 02:40:18;;;;;;;2.60;2.50;;;;;;;4.19;100.00;147105.91;5114177;28;20183;-57
2024/01/20 02:42:45;;;;;;;2.80;2.70;;;;;;;4.13;100.00;147092.06;5114406;28;20187;-56
2024/01/20 02:45:13;;;;;;;2.43;2.33;;;;;;;3.98;100.00;147054.38;5114123;28;20191;-57
2024/01/20 02:47:40;;;;;;;4.60;2.90;;;;;;;4.08;100.00;147080.75;5114320;28;20203;-56
2024/01/20 02:50:08;;;;;;;2.57;2.43;;;;;;;4.06;100.00;147075.75;5114087;28;20183;-56
2024/01/20 02:52:35;;;;;;;2.47;2.37;;;;;;;3.97;100.00;147053.13;5114037;28;20183;-57
2024/01/20 02:55:02;;;;;;;2.87;2.77;;;;;;;4.03;100.00;143230.94;5114088;28;20227;-57
2024/01/20 02:57:31;;;;;;;3.13;3.03;;;;;;;3.98;100.00;147054.38;5113421;28;20184;-57
2024/01/20 02:59:58;;;;;;;2.80;2.70;;;;;;;3.85;100.00;147021.69;5114256;28;20221;-56
2024/01/20 03:02:25;;;;;;;2.80;2.70;;;;;;;3.89;100.00;140836.16;5113778;28;20194;-58
2024/01/20 03:04:52;;;;;;;2.87;2.77;;;;;;;3.72;100.00;136446.47;5113688;28;20179;-57
2024/01/20 03:07:19;;;;;;;3.30;3.10;;;;;;;3.77;100.00;134470.94;5113555;28;20210;-56
2024/01/20 03:09:46;;;;;;;3.23;3.13;;;;;;;3.60;100.00;134327.72;5113895;28;20187;-57
2024/01/20 03:12:14;;;;;;;3.23;3.13;;;;;;;3.48;100.00;138332.44;5113662;28;20248;-56
2024/01/20 03:14:42;;;;;;;3.33;3.20;;;;;;;3.94;100.00;139124.34;5113467;28;20240;-57
2024/01/20 03:17:09;;;;;;;3.67;3.50;;;;;;;4.00;100.00;138033.94;5113733;28;20638;-57
2024/01/20 03:19:36;;;;;;;4.07;3.87;;;;;;;3.97;100.00;138721.28;5113409;28;20183;-57
2024/01/20 03:22:03;;;;;;;3.93;3.73;;;;;;;4.00;100.00;137572.25;5113467;28;20241;-58
2024/01/20 03:24:30;;;;;;;3.40;3.30;;;;;;;3.86;100.00;134440.22;5113456;28;20187;-58
2024/01/20 03:26:57;;;;;;;3.40;3.30;;;;;;;3.77;100.00;140782.91;5113532;28;20292;-56
2024/01/20 03:29:24;;;;;;;3.73;3.57;;;;;;;3.66;100.00;137314.94;5113505;28;20499;-58
2024/01/20 03:31:53;;;;;;;3.47;3.37;;;;;;;3.58;100.00;132302.06;5113140;28;20248;-56
2024/01/20 03:34:21;;;;;;;4.03;3.83;;;;;;;3.67;100.00;131188.31;5113323;28;20199;-58
2024/01/20 03:36:48;;;;;;;4.60;4.40;;;;;;;3.69;100.00;126854.63;5113407;28;20179;-56
2024/01/20 03:39:15;;;;;;;4.20;4.00;;;;;;;3.46;100.00;126277.09;5113943;28;20183;-56
2024/01/20 03:41:42;;;;;;;4.37;4.17;;;;;;;3.61;100.00;127255.97;5113878;28;20202;-58
2024/01/20 03:44:09;;;;;;;4.33;4.13;;;;;;;3.70;100.00;129709.91;5113251;28;20180;-57
2024/01/20 03:46:37;;;;;;;4.53;4.33;;;;;;;3.69;100.00;138658.66;5113357;28;20688;-56
2024/01/20 03:49:05;;;;;;;5.13;4.93;;;;;;;3.49;100.00;143778.16;5113300;28;20244;-56
2024/01/20 03:51:32;;;;;;;4.37;4.17;;;;;;;3.40;100.00;144596.28;5113140;28;20715;-56
2024/01/20 03:53:59;;;;;;;4.30;4.10;;;;;;;3.46;100.00;141511.88;5112850;28;20228;-57
2024/01/20 03:56:26;;;;;;;4.80;4.60;;;;;;;3.42;100.00;143234.69;5112795;28;20291;-57
2024/01/20 03:58:53;;;;;;;4.77;4.43;;;;;;;3.34;100.00;146894.78;5112872;28;20187;-56
2024/01/20 04:01:20;;;;;;;4.27;4.07;;;;;;;3.53;100.00;146942.50;5112605;28;20231;-56
2024/01/20 04:03:47;;;;;;;5.03;4.77;;;;;;;3.60;100.00;138903.28;5112613;28;20183;-57
2024/01/20 04:06:16;;;;;;;5.27;4.97;;;;;;;3.35;100.00;135786.16;5112433;28;20184;-57
2024/01/20 04:08:43;;;;;;;5.10;4.90;;;;;;;3.31;100.00;124156.09;5112054;28;20192;-56
2024/01/20 04:11:10;;;;;;;4.90;4.60;;;;;;;2.75;100.00;117426.84;5112418;28;20244;-57
2024/01/20 04:13:37;;;;;;;5.27;5.07;;;;;;;3.10;100.00;106146.47;5112482;28;20215;-56
2024/01/20 04:16:05;;;;;;;5.00;4.80;;;;;;;2.96;100.00;105372.16;5112753;28;20599;-57
2024/01/20 04:18:32;;;;;;;5.20;5.00;;;;;;;3.10;100.00;103170.22;5112608;28;20187;-58
2024/01/20 04:20:59;;;;;;;5.00;4.80;;;;;;;3.16;100.00;98229.78;5112610;28;20630;-56
2024/01/20 04:23:27;;;;;;;5.67;5.47;;;;;;;3.17;100.00;95866.41;5112642;28;20206;-57
2024/01/20 04:25:54;;;;;;;5.37;5.17;;;;;;;3.28;100.00;97450.06;5112314;28;20195;-58
2024/01/20 04:28:21;;;;;;;5.50;5.30;;;;;;;3.11;100.00;103006.72;5112154;28;20252;-57
2024/01/20 04:30:50;;;;;;;6.20;5.90;;;;;;;3.25;100.00;104001.31;5112562;28;20184;-56
2024/01/20 04:33:17;;;;;;;5.73;5.43;;;;;;;3.14;100.00;112613.97;5112157;28;20190;-57
2024/01/20 04:35:44;;;;;;;5.27;5.07;;;;;;;3.19;100.00;109930.94;5112396;28;20211;-58
2024/01/20 04:38:11;;;;;;;5.17;4.97;;;;;;;3.18;100.00;107275.13;5112092;28;20539;-56
2024/01/20 04:40:40;;;;;;;6.03;5.73;;;;;;;3.11;100.00;106636.94;5112466;28;20219;-57
2024/01/20 04:43:07;;;;;;;5.00;4.70;;;;;;;3.34;100.00;111621.34;5112073;28;20179;-56
2024/01/20 04:45:34;;;;;;;5.73;5.50;;;;;;;3.28;100.00;119401.41;5112299;28;20707;-57
2024/01/20 04:48:01;;;;;;;5.43;5.20;;;;;;;3.25;100.00;121401.59;5111860;28;20203;-56
2024/01/20 04:50:28;;;;;;;5.03;4.83;;;;;;;3.11;100.00;122210.50;5112003;28;20245;-56
2024/01/20 04:52:55;;;;;;;5.20;5.00;;;;;;;3.15;100.00;126157.44;5112251;28;20240;-57
2024/01/20 04:55:22;;;;;;;5.33;5.03;;;;;;;3.17;100.00;126959.03;5111855;28;20243;-56
2024/01/20 04:57:51;;;;;;;5.30;5.00;;;;;;;3.30;100.00;128702.38;5112421;28;20595;-57
2024/01/20 05:00:18;;;;;;;5.67;5.37;;;;;;;3.43;100.00;127775.28;5111904;28;20184;-58
2024/01/20 05:02:45;;;;;;;5.47;5.10;;;;;;;3.43;100.00;132306.59;5111885;28;20271;-55
2024/01/20 05:05:13;;;;;;;5.80;5.57;;;;;;;3.42;100.00;140010.81;5111924;28;20240;-55
2024/01/20 05:07:40;;;;;;;5.03;4.83;;;;;;;3.43;100.00;138703.56;5112009;28;20299;-56
2024/01/20 05:10:07;;;;;;;5.87;5.57;;;;;;;3.36;100.00;137181.47;5112243;28;20627;-56
2024/01/20 05:12:34;;;;;;;5.93;5.63;;;;;;;3.22;100.00;138721.66;5112077;28;20657;-57
2024/01/20 05:15:03;;;;;;;5.90;5.60;;;;;;;3.08;100.00;139992.28;5111980;28;20184;-54
2024/01/20 05:17:30;;;;;;;5.97;5.67;;;;;;;3.25;100.00;136734.53;5111768;28;20286;-56
2024/01/20 05:19:57;;;;;;;5.43;5.23;;;;;;;3.28;100.00;135769.88;5113410;28;20184;-56
2024/01/20 05:22:24;;;;;;;5.57;5.37;;;;;;;3.11;100.00;135909.81;5116024;28;20187;-57
2024/01/20 05:24:51;;;;;;;6.10;5.70;;;;;;;3.32;100.00;137893.84;5115977;28;20183;-55
2024/01/20 05:27:18;;;;;;;6.10;5.80;;;;;;;3.34;100.00;140256.44;5115922;28;20215;-56
2024/01/20 05:29:45;;;;;;;6.03;5.70;;;;;;;3.25;100.00;139914.78;5115575;28;20183;-55
2024/01/20 05:32:15;;;;;;;5.80;5.50;;;;;;;2.97;100.00;141588.44;5115930;28;20632;-56
2024/01/20 05:34:42;;;;;;;4.80;4.50;;;;;;;3.28;100.00;146528.16;5115462;28;20188;-56
2024/01/20 05:37:09;;;;;;;5.40;5.20;;;;;;;3.20;100.00;146862.09;5115312;28;20240;-56
2024/01/20 05:39:36;;;;;;;4.90;4.70;;;;;;;3.23;100.00;146869.63;5115744;28;20202;-56
2024/01/20 05:42:04;;;;;;;5.57;5.10;;;;;;;3.30;100.00;146884.72;5115289;28;20183;-55
2024/01/20 05:44:31;;;;;;;4.97;4.67;;;;;;;3.23;100.00;146869.63;5115241;28;20187;-58
2024/01/20 05:46:58;;;;;;;5.30;5.00;;;;;;;3.14;100.00;146845.78;5115523;28;20224;-56
2024/01/20 05:49:27;;;;;;;5.10;4.80;;;;;;;3.08;100.00;144631.63;5115440;28;20611;-57
2024/01/20 05:51:54;;;;;;;4.50;4.30;;;;;;;3.31;100.00;144274.31;5115105;28;20352;-56
2024/01/20 05:54:21;;;;;;;5.27;4.97;;;;;;;3.10;100.00;141583.94;5115243;28;20180;-57
2024/01/20 05:56:48;;;;;;;5.10;4.90;;;;;;;3.22;100.00;134348.19;5115049;28;20616;-56
2024/01/20 05:59:15;;;;;;;5.60;5.30;;;;;;;3.12;100.00;132432.44;5115493;28;20183;-56
2024/01/20 06:01:42;;;;;;;7.60;7.10;;;;;;;3.07;100.00;130025.84;5114927;28;20188;-55
2024/01/20 06:04:09;;;;;;;7.50;7.10;;;;;;;2.94;100.00;118915.16;5114883;28;20187;-56
2024/01/20 06:06:38;;;;;;;5.70;5.40;;;;;;;2.67;100.00;111565.53;5115354;28;20188;-56
2024/01/20 06:09:05;;;;;;;5.60;5.40;;;;;;;2.55;100.00;105264.28;5114750;28;20255;-57
2024/01/20 06:11:32;;;;;;;7.60;7.03;;;;;;;2.45;100.00;93204.16;5115129;28;20567;-56
2024/01/20 06:13:59;;;;;;;6.10;5.80;;;;;;;2.53;100.00;87821.41;5114790;28;20191;-55
2024/01/20 06:16:26;;;;;;;5.57;5.23;;;;;;;2.52;100.00;87678.28;5114671;28;20196;-55
2024/01/20 06:18:54;;;;;;;6.30;5.70;;;;;;;2.44;100.00;90491.88;5114597;28;20179;-56
2024/01/20 06:21:22;;;;;;;6.30;5.90;;;;;;;2.51;100.00;91155.03;5114948;28;20581;-55
2024/01/20 06:23:50;;;;;;;5.07;4.80;;;;;;;2.43;100.00;94126.28;5114928;28;20634;-56
2024/01/20 06:26:17;;;;;;;5.53;5.13;;;;;;;2.44;100.00;97838.78;5114834;28;20551;-56
2024/01/20 06:28:45;;;;;;;6.83;5.20;;;;;;;2.45;100.00;97456.69;5114327;28;20260;-56
2024/01/20 06:31:22;;;;;;;5.80;5.50;;;;;;;2.46;100.00;93946.19;5114503;28;20683;-55
2024/01/20 06:33:49;;;;;;;5.50;5.30;;;;;;;2.51;100.00;94201.75;5114427;28;20237;-57
2024/01/20 06:36:16;;;;;;;5.00;4.80;;;;;;;2.44;100.00;97313.00;5114748;28;20611;-56
2024/01/20 06:38:43;;;;;;;5.70;5.23;;;;;;;2.42;100.00;95702.47;5114495;28;20595;-55
2024/01/20 06:41:12;;;;;;;5.63;5.33;;;;;;;2.47;100.00;96601.28;5114232;28;20229;-56
2024/01/20 06:43:39;;;;;;;5.73;5.43;;;;;;;2.48;100.00;96247.19;5114211;28;20208;-57
2024/01/20 06:46:06;;;;;;;5.10;4.70;;;;;;;2.53;100.00;97396.53;5114561;28;20253;-55
2024/01/20 06:48:33;;;;;;;4.83;4.63;;;;;;;2.53;100.00;96319.66;5113995;28;20250;-56
2024/01/20 06:51:01;;;;;;;5.20;4.90;;;;;;;2.41;100.00;95493.84;5114161;28;20199;-56
2024/01/20 06:53:28;;;;;;;5.70;4.43;;;;;;;2.56;100.00;96691.47;5114336;28;20213;-55
2024/01/20 06:55:55;;;;;;;5.20;5.00;;;;;;;2.56;100.00;102297.41;5113735;28;20237;-56
2024/01/20 06:58:24;;;;;;;4.60;4.40;;;;;;;2.52;100.00;100173.84;5113891;28;20184;-55
2024/01/20 07:00:52;;;;;;;4.80;4.60;;;;;;;2.42;100.00;95474.38;5114250;28;20657;-56
2024/01/20 07:03:19;;;;;;;4.57;4.37;;;;;;;2.62;100.00;92030.75;5114262;28;20225;-56
2024/01/20 07:05:46;;;;;;;4.23;4.03;;;;;;;2.65;100.00;92369.81;5114044;28;20184;-55
2024/01/20 07:08:13;;;;;;;4.87;4.57;;;;;;;2.61;100.00;95107.56;5113518;28;20207;-57
2024/01/20 07:10:40;;;;;;;4.50;4.30;;;;;;;2.46;100.00;91084.69;5113854;28;20274;-56
2024/01/20 07:13:07;;;;;;;4.97;4.67;;;;;;;2.33;100.00;84712.38;5113580;28;20176;-56
2024/01/20 07:15:35;;;;;;;4.47;4.27;;;;;;;2.24;100.00;76275.25;5113502;28;20241;-57
2024/01/20 07:18:03;;;;;;;5.67;5.27;;;;;;;2.18;100.00;68586.63;5113515;28;20225;-55
2024/01/20 07:20:30;;;;;;;5.63;5.30;;;;;;;2.17;100.00;65794.59;5113753;28;20549;-57
2024/01/20 07:22:57;;;;;;;5.43;5.03;;;;;;;2.10;100.00;63910.69;5113897;28;20183;-55
2024/01/20 07:25:25;;;;;;;5.73;5.33;;;;;;;2.22;100.00;63768.38;5113317;28;20236;-57
2024/01/20 07:27:52;;;;;;;5.63;5.33;;;;;;;2.22;100.00;65297.44;5114010;28;20226;-57
2024/01/20 07:30:21;;;;;;;5.57;5.27;;;;;;;2.03;100.00;67533.63;5113218;28;20256;-56
2024/01/20 07:32:49;;;;;;;5.97;5.57;;;;;;;2.10;100.00;69482.59;5113107;28;20191;-56
2024/01/20 07:35:16;;;;;;;5.97;5.67;;;;;;;2.02;100.00;70629.44;5113316;28;20255;-57
2024/01/20 07:37:44;;;;;;;7.23;6.83;;;;;;;2.08;100.00;68854.31;5113500;28;20209;-58
2024/01/20 07:40:11;;;;;;;6.63;6.13;;;;;;;1.85;100.00;68658.56;5113298;28;20685;-58
2024/01/20 07:42:40;;;;;;;5.77;5.47;;;;;;;1.84;100.00;68738.34;5112349;28;20271;-57
2024/01/20 07:45:08;;;;;;;6.00;5.60;;;;;;;1.67;100.00;66016.13;5113559;28;20599;-58
2024/01/20 07:47:35;;;;;;;6.30;6.00;;;;;;;1.65;100.00;64779.94;5112982;28;20276;-57
2024/01/20 07:50:04;;;;;;;6.40;6.10;;;;;;;1.69;100.00;61589.19;5113236;28;20647;-58
2024/01/20 07:52:31;;;;;;;5.50;5.20;;;;;;;1.70;100.00;61474.94;5113659;28;20233;-59
2024/01/20 07:54:58;;;;;;;5.70;5.40;;;;;;;1.64;100.00;63273.44;5112907;28;20280;-59
2024/01/20 07:57:25;;;;;;;6.43;5.83;;;;;;;1.66;100.00;64836.25;5113578;28;20194;-57
2024/01/20 07:59:52;;;;;;;5.70;5.30;;;;;;;1.71;100.00;66000.63;5113003;28;20698;-58
2024/01/20 08:02:20;;;;;;;6.17;5.53;;;;;;;1.58;100.00;66997.09;5112990;28;20605;-58
2024/01/20 08:04:47;;;;;;;5.93;5.60;;;;;;;1.57;100.00;68168.28;5112556;28;20236;-58
2024/01/20 08:07:15;;;;;;;7.30;6.00;;;;;;;1.66;100.00;69405.16;5112842;28;20480;-59
2024/01/20 08:09:42;;;;;;;5.77;5.40;;;;;;;1.72;100.00;69723.31;5112800;28;20249;-58
2024/01/20 08:12:09;;;;;;;5.97;5.47;;;;;;;1.77;100.00;70071.72;5113223;28;20188;-58
2024/01/20 08:14:36;;;;;;;6.93;6.47;;;;;;;1.74;100.00;70406.75;5112676;28;20252;-57
2024/01/20 08:17:04;;;;;;;5.63;5.23;;;;;;;1.48;100.00;69528.59;5112429;28;20195;-57
2024/01/20 08:19:31;;;;;;;5.80;5.47;;;;;;;1.83;100.00;69683.81;5112723;28;20530;-58
2024/01/20 08:21:58;;;;;;;5.23;4.93;;;;;;;1.80;100.00;69567.13;5112413;28;20187;-57
2024/01/20 08:24:26;;;;;;;5.20;4.90;;;;;;;1.81;100.00;71257.34;5112439;28;20188;-58
2024/01/20 08:26:53;;;;;;;5.33;5.03;;;;;;;1.74;100.00;71718.84;5112723;28;20195;-57
2024/01/20 08:29:22;;;;;;;5.83;5.53;;;;;;;1.63;100.00;72590.09;5112419;28;20203;-58
2024/01/20 08:31:49;;;;;;;5.63;5.33;;;;;;;1.77;100.00;72529.72;5112538;28;20656;-57
2024/01/20 08:34:17;;;;;;;5.40;5.00;;;;;;;1.72;100.00;74667.19;5112267;28;20188;-57
2024/01/20 08:36:44;;;;;;;5.07;4.83;;;;;;;1.85;100.00;74174.97;5112182;28;20194;-57
2024/01/20 08:39:11;;;;;;;5.63;5.33;;;;;;;1.95;100.00;74799.44;5112448;28;20593;-58
2024/01/20 08:41:40;;;;;;;6.80;6.20;;;;;;;1.94;100.00;77155.03;5112492;28;20637;-56
2024/01/20 08:44:07;;;;;;;7.17;6.50;;;;;;;1.84;100.00;78509.50;5112209;28;20195;-57
2024/01/20 08:46:34;;;;;;;6.30;5.77;;;;;;;2.04;100.00;78334.97;5112192;28;20183;-56
2024/01/20 08:49:01;;;;;;;7.37;6.00;;;;;;;1.97;100.00;80759.91;5112808;28;20673;-57
2024/01/20 08:51:28;;;;;;;5.57;5.13;;;;;;;1.91;100.00;81218.75;5112350;28;20607;-57
2024/01/20 08:53:55;;;;;;;7.07;5.23;;;;;;;1.97;100.00;81484.41;5112279;28;20219;-57
2024/01/20 08:56:22;;;;;;;8.63;5.10;;;;;;;1.67;100.00;83594.03;5115703;28;20260;-57
2024/01/20 08:58:51;;;;;;;4.80;4.60;;;;;;;1.53;100.00;84792.16;5116528;28;20337;-58
2024/01/20 09:01:18;;;;;;;5.50;5.10;;;;;;;1.69;100.00;85983.38;5116638;28;20653;-57
2024/01/20 09:03:45;;;;;;;7.63;5.80;;;;;;;1.77;100.00;83653.13;5116275;28;20226;-58
2024/01/20 09:06:13;;;;;;;5.47;5.03;;;;;;;1.91;100.00;81629.81;5116614;28;20191;-58
2024/01/20 09:08:40;;;;;;;5.27;4.97;;;;;;;1.67;100.00;84087.75;5115936;28;20260;-59
2024/01/20 09:11:07;;;;;;;5.60;5.30;;;;;;;1.81;100.00;85970.84;5116495;28;20561;-57
2024/01/20 09:13:34;;;;;;;5.43;4.83;;;;;;;1.76;100.00;82155.91;5116307;28;20236;-57
2024/01/20 09:16:02;;;;;;;5.10;4.80;;;;;;;1.74;100.00;81089.75;5116929;28;20183;-57
2024/01/20 09:18:29;;;;;;;5.40;5.10;;;;;;;1.74;100.00;80872.28;5115745;28;20180;-57
2024/01/20 09:20:56;;;;;;;8.67;6.07;;;;;;;1.79;100.00;78714.34;5115948;28;20284;-57
2024/01/20 09:23:23;;;;;;;5.53;5.23;;;;;;;1.73;100.00;77553.31;5116306;28;20256;-57
2024/01/20 09:25:51;;;;;;;5.17;4.60;;;;;;;1.75;100.00;75159.25;5115798;28;20196;-57
2024/01/20 09:28:18;;;;;;;5.13;4.73;;;;;;;1.55;100.00;74327.69;5115453;28;20234;-57
2024/01/20 09:30:45;;;;;;;4.37;4.17;;;;;;;1.64;100.00;70816.69;5115921;28;20221;-57
2024/01/20 09:33:14;;;;;;;4.97;4.67;;;;;;;1.45;100.00;70972.41;5116000;28;20606;-57
2024/01/20 09:35:41;;;;;;;4.77;4.47;;;;;;;1.64;100.00;67426.41;5115609;28;20192;-58
2024/01/20 09:38:08;;;;;;;4.80;4.50;;;;;;;1.64;100.00;69020.97;5115978;28;20191;-58
2024/01/20 09:40:35;;;;;;;4.60;4.40;;;;;;;1.74;100.00;68281.28;5115664;28;20195;-59
2024/01/20 09:43:03;;;;;;;5.77;5.03;;;;;;;1.74;100.00;67359.69;5116180;28;20656;-58
2024/01/20 09:45:30;;;;;;;4.57;4.33;;;;;;;1.80;100.00;68655.72;5115386;28;20187;-58
2024/01/20 09:47:58;;;;;;;4.30;4.10;;;;;;;1.66;100.00;73765.75;5115932;28;20272;-57
2024/01/20 09:50:26;;;;;;;5.70;4.27;;;;;;;1.32;100.00;75179.53;5115243;28;20190;-57
2024/01/20 09:52:58;;;;;;;5.20;4.40;;;;;;;1.54;100.00;76855.06;5115361;28;20183;-59
2024/01/20 09:55:27;;;;;;;4.23;3.90;;;;;;;1.34;100.00;79070.06;5115065;28;20658;-58
2024/01/20 09:57:56;;;;;;;3.53;3.33;;;;;;;1.32;100.00;86464.94;5115403;28;20219;-57
2024/01/20 10:00:24;;;;;;;4.23;4.03;;;;;;;1.44;100.00;85996.84;5115566;28;20184;-58
2024/01/20 10:02:52;;;;;;;4.40;4.03;;;;;;;1.59;100.00;84308.22;5115376;28;20237;-57
2024/01/20 10:05:29;;;;;;;4.27;3.60;;;;;;;1.66;100.00;80210.88;5114394;28;20232;-58
2024/01/20 10:07:57;;;;;;;5.47;4.87;;;;;;;1.77;100.00;77648.66;5115294;28;20210;-56
2024/01/20 10:10:24;;;;;;;4.70;4.50;;;;;;;1.71;100.00;77492.69;5115061;28;20673;-58
2024/01/20 10:12:51;;;;;;;4.10;3.90;;;;;;;1.73;100.00;78732.09;5114889;28;20183;-58
2024/01/20 10:15:22;;;;;;;3.90;3.70;;;;;;;1.52;100.00;88518.09;5115201;28;20183;-61
2024/01/20 10:17:50;;;;;;;3.83;3.63;;;;;;;1.43;100.00;90669.09;5115150;28;20676;-57
2024/01/20 10:20:21;;;;;;;3.47;3.27;;;;;;;1.64;100.00;85834.63;5114814;28;20311;-58
2024/01/20 10:22:50;;;;;;;3.67;3.47;;;;;;;1.61;100.00;87897.88;5114523;28;20184;-58
2024/01/20 10:25:19;;;;;;;3.47;3.20;;;;;;;1.58;100.00;89184.75;5114887;28;20618;-58
2024/01/20 10:27:47;;;;;;;3.27;3.13;;;;;;;1.60;100.00;86840.94;5114694;28;20188;-57
2024/01/20 10:30:17;;;;;;;3.73;3.53;;;;;;;1.50;100.00;88318.84;5114783;28;20199;-58
2024/01/20 10:32:44;;;;;;;3.90;3.70;;;;;;;1.41;100.00;88709.16;5114927;28;20205;-57
2024/01/20 10:35:11;;;;;;;4.53;4.23;;;;;;;1.56;100.00;83534.59;5114747;28;20187;-56
2024/01/20 10:37:40;;;;;;;2.83;2.73;;;;;;;1.43;100.00;85061.88;5114893;28;20179;-57
2024/01/20 10:40:12;;;;;;;3.70;3.40;;;;;;;1.37;100.00;80605.41;5114431;28;20241;-57
2024/01/20 10:42:45;;;;;;;3.60;3.40;;;;;;;1.55;100.00;76423.50;5114585;28;20201;-57
2024/01/20 10:45:17;;;;;;;4.00;3.77;;;;;;;1.48;100.00;75412.88;5114210;28;20187;-59
2024/01/20 10:48:01;;;;;;;4.30;4.10;;;;;;;1.61;100.00;75437.34;5114422;28;20183;-58
2024/01/20 10:50:28;;;;;;;4.67;4.37;;;;;;;1.57;100.00;73120.63;5114051;28;20200;-58
2024/01/20 10:52:56;;;;;;;5.93;5.53;;;;;;;1.69;100.00;73891.00;5114395;28;20187;-58
2024/01/20 10:55:26;;;;;;;4.80;4.40;;;;;;;1.61;100.00;77304.94;5113848;28;20231;-57
2024/01/20 10:57:53;;;;;;;4.97;4.67;;;;;;;1.54;100.00;83551.88;5114297;28;20555;-57
2024/01/20 11:00:21;;;;;;;6.40;5.53;;;;;;;1.50;100.00;81759.34;5114335;28;20554;-56
2024/01/20 11:02:49;;;;;;;6.07;5.57;;;;;;;1.53;100.00;79780.41;5113940;28;20282;-58
2024/01/20 11:05:23;;;;;;;6.10;5.60;;;;;;;1.48;100.00;77222.16;5113927;28;20184;-57
2024/01/20 11:07:57;;;;;;;5.30;4.90;;;;;;;1.62;100.00;78096.91;5114213;28;20612;-59
2024/01/20 11:10:26;;;;;;;5.80;5.50;;;;;;;1.60;100.00;77439.56;5113790;28;20302;-58
2024/01/20 11:13:00;;;;;;;5.37;5.07;;;;;;;1.62;100.00;82862.25;5113970;28;20187;-58
2024/01/20 11:15:30;;;;;;;5.43;5.13;;;;;;;1.54;100.00;84285.84;5113994;28;20669;-57
2024/01/20 11:17:57;;;;;;;5.53;5.23;;;;;;;1.51;100.00;81472.72;5112950;28;20565;-57
2024/01/20 11:20:24;;;;;;;6.40;5.90;;;;;;;1.33;100.00;79098.88;5113541;28;20234;-58
2024/01/20 11:22:51;;;;;;;11.13;6.93;;;;;;;1.50;100.00;73486.38;5113447;28;20187;-57
2024/01/20 11:25:19;;;;;;;7.83;7.20;;;;;;;1.61;100.00;70056.75;5113304;28;20188;-57
2024/01/20 11:27:49;;;;;;;5.97;5.57;;;;;;;1.54;100.00;71619.25;5113838;28;20693;-58
2024/01/20 11:30:26;;;;;;;6.50;6.10;;;;;;;1.59;100.00;78536.09;5113627;28;20268;-56